createdAt,value
2023-04-08T00:04:17.757Z,7.20
2023-04-08T00:09:12.684Z,7.10
2023-04-08T00:14:06.095Z,7.00
2023-04-08T00:19:00.643Z,7.00
2023-04-08T00:23:54.009Z,7.00
2023-04-08T00:28:49.131Z,7.00
2023-04-08T00:33:42.881Z,7.10
2023-04-08T00:38:36.252Z,7.10
2023-04-08T00:43:29.740Z,7.10
2023-04-08T00:48:24.575Z,7.10
2023-04-08T00:53:20.696Z,7.10
2023-04-08T00:58:15.622Z,7.10
2023-04-08T01:03:18.178Z,7.20
2023-04-08T01:08:13.892Z,7.20
2023-04-08T01:13:11.995Z,7.30
2023-04-08T01:18:12.615Z,7.30
2023-04-08T01:23:22.073Z,7.40
2023-04-08T01:33:21.517Z,7.30
2023-04-08T01:38:21.070Z,7.20
2023-04-08T01:43:19.101Z,7.00
2023-04-08T01:48:16.468Z,7.10
2023-04-08T01:53:13.362Z,7.10
2023-04-08T01:58:12.389Z,6.90
2023-04-08T02:03:08.392Z,6.90
2023-04-08T02:08:05.312Z,6.80
2023-04-08T02:12:59.136Z,6.80
2023-04-08T02:18:02.342Z,6.70
2023-04-08T02:23:09.377Z,6.80
2023-04-08T02:28:07.324Z,6.80
2023-04-08T02:33:05.219Z,6.90
2023-04-08T02:37:58.731Z,6.90
2023-04-08T02:42:53.529Z,6.80
2023-04-08T02:47:47.159Z,6.70
2023-04-08T02:52:40.916Z,6.60
2023-04-08T02:57:34.298Z,6.40
2023-04-08T03:02:29.067Z,6.50
2023-04-08T03:07:22.695Z,6.50
2023-04-08T03:12:16.058Z,6.60
2023-04-08T03:17:09.439Z,6.70
2023-04-08T03:22:06.587Z,6.70
2023-04-08T03:27:00.019Z,6.60
2023-04-08T03:31:53.486Z,6.70
2023-04-08T03:36:46.851Z,6.70
2023-04-08T03:41:41.511Z,6.70
2023-04-08T03:46:34.948Z,6.70
2023-04-08T03:51:28.737Z,6.70
2023-04-08T03:56:22.110Z,6.70
2023-04-08T04:01:23.008Z,6.80
2023-04-08T04:06:16.461Z,6.80
2023-04-08T04:11:10.381Z,6.70
2023-04-08T04:16:03.805Z,6.60
2023-04-08T04:20:58.562Z,6.60
2023-04-08T04:26:02.516Z,6.60
2023-04-08T04:30:57.598Z,6.60
2023-04-08T04:35:51.151Z,6.60
2023-04-08T04:40:46.115Z,6.60
2023-04-08T04:45:40.502Z,6.70
2023-04-08T04:50:33.924Z,6.60
2023-04-08T04:55:27.404Z,6.70
2023-04-08T05:00:25.421Z,6.70
2023-04-08T05:05:19.040Z,6.70
2023-04-08T05:10:12.785Z,6.60
2023-04-08T05:15:07.775Z,6.50
2023-04-08T05:20:02.649Z,6.50
2023-04-08T05:24:56.050Z,6.40
2023-04-08T05:29:49.408Z,6.50
2023-04-08T05:34:42.679Z,6.50
2023-04-08T05:39:37.613Z,6.50
2023-04-08T05:44:31.048Z,6.60
2023-04-08T05:49:24.407Z,6.60
2023-04-08T05:54:17.858Z,6.50
2023-04-08T05:59:12.622Z,6.60
2023-04-08T06:04:06.624Z,6.60
2023-04-08T06:09:00.455Z,6.60
2023-04-08T06:13:53.874Z,6.70
2023-04-08T06:18:49.186Z,6.90
2023-04-08T06:23:43.001Z,7.00
2023-04-08T06:28:36.405Z,7.00
2023-04-08T06:33:29.780Z,7.10
2023-04-08T06:38:24.560Z,7.10
2023-04-08T06:43:17.904Z,7.10
2023-04-08T06:48:12.179Z,7.10
2023-04-08T06:53:05.531Z,7.10
2023-04-08T06:58:02.059Z,7.20
2023-04-08T07:02:55.744Z,7.40
2023-04-08T07:07:49.260Z,7.40
2023-04-08T07:12:42.638Z,7.60
2023-04-08T07:17:37.915Z,7.70
2023-04-08T07:22:31.321Z,7.50
2023-04-08T07:27:24.710Z,7.50
2023-04-08T07:37:22.355Z,7.60
2023-04-08T07:42:15.715Z,7.70
2023-04-08T07:47:10.389Z,7.80
2023-04-08T07:52:03.796Z,7.80
2023-04-08T07:56:59.968Z,7.80
2023-04-08T08:01:53.631Z,8.00
2023-04-08T08:06:47.904Z,8.00
2023-04-08T08:11:41.546Z,8.00
2023-04-08T08:21:43.746Z,8.40
2023-04-08T08:36:59.645Z,8.50
2023-04-08T08:41:54.288Z,8.50
2023-04-08T08:46:49.652Z,8.60
2023-04-08T08:51:52.446Z,8.60
2023-04-08T08:56:51.447Z,8.60
2023-04-08T09:01:45.106Z,8.60
2023-04-08T09:16:54.336Z,8.20
2023-04-08T09:21:47.762Z,8.20
2023-04-08T09:26:41.782Z,8.30
2023-04-08T09:31:38.356Z,8.30
2023-04-08T09:36:37.451Z,8.30
2023-04-08T09:41:35.408Z,8.20
2023-04-08T09:46:42.095Z,8.20
2023-04-08T09:51:48.341Z,8.20
2023-04-08T09:56:48.935Z,8.30
2023-04-08T10:01:55.388Z,8.40
2023-04-08T10:07:02.737Z,8.50
2023-04-08T10:11:57.071Z,8.60
2023-04-08T10:17:27.411Z,8.70
2023-04-08T10:22:50.381Z,8.90
2023-04-08T10:27:46.944Z,9.20
2023-04-08T10:32:42.425Z,9.30
2023-04-08T10:37:35.833Z,9.20
2023-04-08T10:42:30.979Z,9.20
2023-04-08T10:47:28.686Z,9.10
2023-04-08T10:52:23.519Z,8.90
2023-04-08T10:57:18.754Z,9.10
2023-04-08T11:02:16.871Z,9.30
2023-04-08T11:12:06.488Z,9.80
2023-04-08T11:17:01.553Z,10.10
2023-04-08T11:21:56.335Z,10.30
2023-04-08T11:47:48.593Z,10.20
2023-04-08T11:52:48.451Z,10.40
2023-04-08T12:07:58.080Z,10.70
2023-04-08T12:12:51.498Z,10.40
2023-04-08T12:17:46.602Z,10.20
2023-04-08T12:22:41.612Z,10.20
2023-04-08T12:48:04.368Z,9.60
2023-04-08T13:08:20.216Z,9.70
2023-04-08T13:19:12.039Z,9.90
2023-04-08T13:29:13.232Z,9.80
2023-04-08T13:40:01.672Z,9.00
2023-04-08T13:44:56.518Z,8.70
2023-04-08T13:49:54.672Z,8.60
2023-04-08T13:55:14.779Z,8.60
2023-04-08T14:00:11.694Z,8.60
2023-04-08T14:05:05.561Z,8.70
2023-04-08T14:09:58.921Z,8.80
2023-04-08T14:14:52.335Z,8.90
2023-04-08T14:19:47.142Z,9.00
2023-04-08T14:24:40.421Z,9.00
2023-04-08T14:29:33.783Z,9.10
2023-04-08T14:34:27.361Z,9.20
2023-04-08T14:44:24.106Z,9.20
2023-04-08T14:49:17.520Z,9.30
2023-04-08T14:54:10.817Z,9.20
2023-04-08T14:59:04.239Z,9.20
2023-04-08T15:03:59.025Z,9.10
2023-04-08T15:08:52.750Z,9.10
2023-04-08T15:13:46.281Z,9.00
2023-04-08T15:18:42.359Z,9.10
2023-04-08T15:23:41.885Z,9.10
2023-04-08T15:28:35.245Z,9.20
2023-04-08T15:33:28.612Z,9.40
2023-04-08T15:38:22.004Z,9.50
2023-04-08T15:43:16.718Z,9.60
2023-04-08T15:48:11.632Z,9.60
2023-04-08T15:53:05.031Z,9.60
2023-04-08T15:57:58.536Z,9.50
2023-04-08T16:02:53.367Z,9.50
2023-04-08T16:07:46.915Z,9.30
2023-04-08T16:12:41.124Z,9.20
2023-04-08T16:17:37.443Z,9.20
2023-04-08T16:22:32.212Z,9.10
2023-04-08T16:27:25.708Z,8.90
2023-04-08T16:32:19.124Z,8.80
2023-04-08T16:37:14.824Z,8.80
2023-04-08T16:42:10.199Z,8.80
2023-04-08T16:47:06.468Z,8.80
2023-04-08T16:52:01.442Z,8.80
2023-04-08T16:56:54.838Z,8.70
2023-04-08T17:01:49.578Z,8.60
2023-04-08T17:06:43.121Z,8.50
2023-04-08T17:11:36.669Z,8.50
2023-04-08T17:16:30.604Z,8.40
2023-04-08T17:21:26.162Z,8.40
2023-04-08T17:26:19.638Z,8.20
2023-04-08T17:51:53.677Z,8.10
2023-04-08T17:56:49.066Z,8.10
2023-04-08T18:01:43.254Z,8.00
2023-04-08T18:06:38.371Z,7.90
2023-04-08T18:11:33.229Z,7.90
2023-04-08T18:16:26.641Z,7.90
2023-04-08T18:21:21.189Z,7.90
2023-04-08T18:26:16.646Z,7.90
2023-04-08T18:31:11.403Z,7.90
2023-04-08T18:36:09.195Z,8.00
2023-04-08T18:41:02.625Z,7.90
2023-04-08T18:50:57.724Z,7.90
2023-04-08T18:55:51.301Z,7.90
2023-04-08T19:00:44.692Z,7.80
2023-04-08T19:10:46.417Z,7.80
2023-04-08T19:15:41.126Z,7.80
2023-04-08T19:20:34.657Z,7.80
2023-04-08T19:25:28.017Z,7.90
2023-04-08T19:30:24.399Z,7.90
2023-04-08T19:35:17.823Z,7.90
2023-04-08T19:40:12.958Z,7.90
2023-04-08T19:45:07.472Z,7.90
2023-04-08T19:50:02.317Z,7.90
2023-04-08T19:54:55.781Z,7.80
2023-04-08T19:59:49.867Z,7.70
2023-04-08T20:04:43.320Z,7.70
2023-04-08T20:09:39.890Z,7.70
2023-04-08T20:14:35.769Z,7.80
2023-04-08T20:19:29.390Z,7.70
2023-04-08T20:24:22.925Z,7.70
2023-04-08T20:29:17.755Z,7.70
2023-04-08T20:34:11.115Z,7.70
2023-04-08T20:46:12.730Z,7.60
2023-04-08T20:51:06.196Z,7.50
2023-04-08T20:55:59.804Z,7.40
2023-04-08T21:00:53.258Z,7.40
2023-04-08T21:05:49.449Z,7.40
2023-04-08T21:10:42.789Z,7.30
2023-04-08T21:15:36.086Z,7.30
2023-04-08T21:20:29.580Z,7.30
2023-04-08T21:25:24.920Z,7.10
2023-04-08T21:35:25.258Z,6.90
2023-04-08T21:40:19.283Z,6.90
2023-04-08T21:45:15.440Z,7.00
2023-04-08T21:50:09.925Z,6.90
2023-04-08T21:55:03.838Z,7.00
2023-04-08T21:59:57.220Z,7.00
2023-04-08T22:04:52.289Z,7.00
2023-04-08T22:09:47.639Z,7.10
2023-04-08T22:14:41.019Z,7.00
2023-04-08T22:19:34.339Z,7.00
2023-04-08T22:29:36.381Z,7.00
2023-04-08T22:34:29.707Z,6.90
2023-04-08T22:44:30.040Z,6.90
2023-04-08T22:54:31.235Z,6.90
2023-04-08T22:59:24.682Z,6.80
2023-04-08T23:04:18.217Z,6.90
2023-04-08T23:14:20.377Z,7.00
2023-04-08T23:19:13.682Z,6.90
2023-04-08T23:34:22.274Z,7.00
2023-04-08T23:44:22.786Z,6.90
2023-04-08T23:49:16.184Z,6.70
2023-04-08T23:54:10.911Z,6.60
2023-04-08T23:59:04.323Z,6.50
